sensor_id;sensor_type;location;lat;lon;timestamp;P1;durP1;ratioP1;P2;durP2;ratioP2
54123;SDS011;55741;53.252;5.788;2022-09-13T00:01:48;19.48;;;14.65;;
54123;SDS011;55741;53.252;5.788;2022-09-13T00:04:14;18.42;;;14.50;;
54123;SDS011;55741;53.252;5.788;2022-09-13T00:06:40;19.25;;;14.65;;
54123;SDS011;55741;53.252;5.788;2022-09-13T00:09:06;15.85;;;14.13;;
54123;SDS011;55741;53.252;5.788;2022-09-13T00:11:31;23.08;;;15.30;;
54123;SDS011;55741;53.252;5.788;2022-09-13T00:13:57;18.38;;;14.85;;
54123;SDS011;55741;53.252;5.788;2022-09-13T00:16:24;18.23;;;14.68;;
54123;SDS011;55741;53.252;5.788;2022-09-13T00:18:52;21.60;;;16.08;;
54123;SDS011;55741;53.252;5.788;2022-09-13T00:21:19;20.42;;;16.40;;
54123;SDS011;55741;53.252;5.788;2022-09-13T00:23:47;28.08;;;16.35;;
54123;SDS011;55741;53.252;5.788;2022-09-13T00:26:26;22.15;;;16.17;;
54123;SDS011;55741;53.252;5.788;2022-09-13T00:28:53;23.52;;;17.13;;
54123;SDS011;55741;53.252;5.788;2022-09-13T00:31:21;21.15;;;17.02;;
54123;SDS011;55741;53.252;5.788;2022-09-13T00:33:48;28.88;;;17.80;;
54123;SDS011;55741;53.252;5.788;2022-09-13T00:36:14;23.95;;;18.45;;
54123;SDS011;55741;53.252;5.788;2022-09-13T00:38:40;24.77;;;17.33;;
54123;SDS011;55741;53.252;5.788;2022-09-13T00:41:09;29.15;;;18.95;;
54123;SDS011;55741;53.252;5.788;2022-09-13T00:43:41;27.42;;;19.30;;
54123;SDS011;55741;53.252;5.788;2022-09-13T00:46:10;27.55;;;18.63;;
54123;SDS011;55741;53.252;5.788;2022-09-13T00:48:41;28.38;;;19.60;;
54123;SDS011;55741;53.252;5.788;2022-09-13T00:51:10;23.90;;;18.00;;
54123;SDS011;55741;53.252;5.788;2022-09-13T00:53:37;27.52;;;20.02;;
54123;SDS011;55741;53.252;5.788;2022-09-13T00:56:07;24.10;;;18.77;;
54123;SDS011;55741;53.252;5.788;2022-09-13T00:58:42;26.02;;;18.35;;
54123;SDS011;55741;53.252;5.788;2022-09-13T01:01:10;26.60;;;18.40;;
54123;SDS011;55741;53.252;5.788;2022-09-13T01:03:37;26.23;;;18.48;;
54123;SDS011;55741;53.252;5.788;2022-09-13T01:08:37;20.35;;;16.40;;
54123;SDS011;55741;53.252;5.788;2022-09-13T01:11:05;26.70;;;18.40;;
54123;SDS011;55741;53.252;5.788;2022-09-13T01:13:37;25.98;;;16.92;;
54123;SDS011;55741;53.252;5.788;2022-09-13T01:16:04;25.10;;;17.50;;
54123;SDS011;55741;53.252;5.788;2022-09-13T01:18:30;27.92;;;18.20;;
54123;SDS011;55741;53.252;5.788;2022-09-13T01:32:37;27.23;;;17.13;;
54123;SDS011;55741;53.252;5.788;2022-09-13T01:35:20;27.88;;;18.13;;
54123;SDS011;55741;53.252;5.788;2022-09-13T01:38:05;24.75;;;17.88;;
54123;SDS011;55741;53.252;5.788;2022-09-13T01:40:43;21.45;;;16.30;;
54123;SDS011;55741;53.252;5.788;2022-09-13T01:46:38;20.00;;;14.88;;
54123;SDS011;55741;53.252;5.788;2022-09-13T01:49:19;20.83;;;14.10;;
54123;SDS011;55741;53.252;5.788;2022-09-13T01:51:48;18.50;;;13.65;;
54123;SDS011;55741;53.252;5.788;2022-09-13T01:54:26;20.05;;;13.38;;
54123;SDS011;55741;53.252;5.788;2022-09-13T02:04:51;8.45;;;2.75;;
54123;SDS011;55741;53.252;5.788;2022-09-13T02:07:28;6.35;;;1.88;;
54123;SDS011;55741;53.252;5.788;2022-09-13T02:10:01;5.15;;;1.40;;
54123;SDS011;55741;53.252;5.788;2022-09-13T02:12:33;8.63;;;1.90;;
54123;SDS011;55741;53.252;5.788;2022-09-13T02:15:03;6.00;;;1.42;;
54123;SDS011;55741;53.252;5.788;2022-09-13T02:17:37;6.63;;;1.83;;
54123;SDS011;55741;53.252;5.788;2022-09-13T02:20:13;7.70;;;1.20;;
54123;SDS011;55741;53.252;5.788;2022-09-13T02:23:02;4.18;;;1.20;;
54123;SDS011;55741;53.252;5.788;2022-09-13T02:25:33;5.20;;;1.30;;
54123;SDS011;55741;53.252;5.788;2022-09-13T02:28:04;3.85;;;1.45;;
54123;SDS011;55741;53.252;5.788;2022-09-13T02:30:34;8.35;;;1.67;;
54123;SDS011;55741;53.252;5.788;2022-09-13T02:38:36;6.88;;;1.65;;
54123;SDS011;55741;53.252;5.788;2022-09-13T02:41:12;6.05;;;1.60;;
54123;SDS011;55741;53.252;5.788;2022-09-13T02:43:52;6.95;;;1.50;;
54123;SDS011;55741;53.252;5.788;2022-09-13T02:49:15;3.58;;;1.38;;
54123;SDS011;55741;53.252;5.788;2022-09-13T02:54:38;9.68;;;1.90;;
54123;SDS011;55741;53.252;5.788;2022-09-13T02:57:35;9.18;;;1.83;;
54123;SDS011;55741;53.252;5.788;2022-09-13T03:00:05;4.03;;;1.70;;
54123;SDS011;55741;53.252;5.788;2022-09-13T03:02:31;9.18;;;1.83;;
54123;SDS011;55741;53.252;5.788;2022-09-13T03:04:59;10.05;;;1.90;;
54123;SDS011;55741;53.252;5.788;2022-09-13T03:07:26;7.97;;;1.70;;
54123;SDS011;55741;53.252;5.788;2022-09-13T03:09:53;4.93;;;1.80;;
54123;SDS011;55741;53.252;5.788;2022-09-13T03:12:29;7.03;;;1.90;;
54123;SDS011;55741;53.252;5.788;2022-09-13T03:17:53;6.60;;;1.58;;
54123;SDS011;55741;53.252;5.788;2022-09-13T03:20:43;6.67;;;1.80;;
54123;SDS011;55741;53.252;5.788;2022-09-13T03:37:05;6.63;;;1.57;;
54123;SDS011;55741;53.252;5.788;2022-09-13T03:42:15;7.07;;;2.20;;
54123;SDS011;55741;53.252;5.788;2022-09-13T03:44:47;9.50;;;2.78;;
54123;SDS011;55741;53.252;5.788;2022-09-13T03:47:16;8.35;;;1.98;;
54123;SDS011;55741;53.252;5.788;2022-09-13T03:49:43;5.07;;;1.80;;
54123;SDS011;55741;53.252;5.788;2022-09-13T03:52:10;7.03;;;2.08;;
54123;SDS011;55741;53.252;5.788;2022-09-13T03:54:37;5.93;;;1.80;;
54123;SDS011;55741;53.252;5.788;2022-09-13T03:57:07;7.40;;;1.95;;
54123;SDS011;55741;53.252;5.788;2022-09-13T03:59:55;6.55;;;1.45;;
54123;SDS011;55741;53.252;5.788;2022-09-13T04:02:22;7.68;;;1.95;;
54123;SDS011;55741;53.252;5.788;2022-09-13T04:04:49;6.80;;;1.60;;
54123;SDS011;55741;53.252;5.788;2022-09-13T04:07:19;8.43;;;2.10;;
54123;SDS011;55741;53.252;5.788;2022-09-13T04:09:46;5.55;;;1.70;;
54123;SDS011;55741;53.252;5.788;2022-09-13T04:12:12;4.15;;;1.33;;
54123;SDS011;55741;53.252;5.788;2022-09-13T04:14:39;6.45;;;1.63;;
54123;SDS011;55741;53.252;5.788;2022-09-13T04:17:07;8.32;;;1.85;;
54123;SDS011;55741;53.252;5.788;2022-09-13T04:19:33;10.38;;;2.13;;
54123;SDS011;55741;53.252;5.788;2022-09-13T04:21:59;7.90;;;2.00;;
54123;SDS011;55741;53.252;5.788;2022-09-13T04:24:25;7.43;;;2.28;;
54123;SDS011;55741;53.252;5.788;2022-09-13T04:26:52;6.90;;;2.10;;
54123;SDS011;55741;53.252;5.788;2022-09-13T04:29:21;5.78;;;2.00;;
54123;SDS011;55741;53.252;5.788;2022-09-13T04:31:48;5.85;;;2.30;;
54123;SDS011;55741;53.252;5.788;2022-09-13T04:34:15;5.75;;;2.17;;
54123;SDS011;55741;53.252;5.788;2022-09-13T04:36:42;4.18;;;2.00;;
54123;SDS011;55741;53.252;5.788;2022-09-13T04:39:09;7.97;;;2.42;;
54123;SDS011;55741;53.252;5.788;2022-09-13T04:41:35;8.68;;;2.28;;
54123;SDS011;55741;53.252;5.788;2022-09-13T04:44:01;7.68;;;2.47;;
54123;SDS011;55741;53.252;5.788;2022-09-13T04:46:27;10.93;;;2.50;;
54123;SDS011;55741;53.252;5.788;2022-09-13T04:48:54;7.15;;;2.17;;
54123;SDS011;55741;53.252;5.788;2022-09-13T04:51:20;5.68;;;1.95;;
54123;SDS011;55741;53.252;5.788;2022-09-13T04:53:50;6.40;;;1.67;;
54123;SDS011;55741;53.252;5.788;2022-09-13T04:56:20;6.38;;;1.92;;
54123;SDS011;55741;53.252;5.788;2022-09-13T04:58:47;11.27;;;2.28;;
54123;SDS011;55741;53.252;5.788;2022-09-13T05:01:15;12.68;;;2.17;;
54123;SDS011;55741;53.252;5.788;2022-09-13T05:03:42;8.68;;;2.00;;
54123;SDS011;55741;53.252;5.788;2022-09-13T05:06:08;7.15;;;2.15;;
54123;SDS011;55741;53.252;5.788;2022-09-13T05:08:39;7.40;;;2.17;;
54123;SDS011;55741;53.252;5.788;2022-09-13T05:11:05;5.85;;;1.67;;
54123;SDS011;55741;53.252;5.788;2022-09-13T05:13:32;12.20;;;1.90;;
54123;SDS011;55741;53.252;5.788;2022-09-13T05:15:59;8.95;;;2.10;;
54123;SDS011;55741;53.252;5.788;2022-09-13T05:18:27;8.75;;;2.05;;
54123;SDS011;55741;53.252;5.788;2022-09-13T05:20:54;7.95;;;1.90;;
54123;SDS011;55741;53.252;5.788;2022-09-13T05:23:22;15.88;;;2.30;;
54123;SDS011;55741;53.252;5.788;2022-09-13T05:25:58;8.07;;;1.77;;
54123;SDS011;55741;53.252;5.788;2022-09-13T05:28:26;12.52;;;1.70;;
54123;SDS011;55741;53.252;5.788;2022-09-13T05:30:59;8.20;;;1.70;;
54123;SDS011;55741;53.252;5.788;2022-09-13T05:33:30;12.00;;;2.25;;
54123;SDS011;55741;53.252;5.788;2022-09-13T05:35:57;10.85;;;2.03;;
54123;SDS011;55741;53.252;5.788;2022-09-13T05:38:23;5.28;;;1.40;;
54123;SDS011;55741;53.252;5.788;2022-09-13T05:40:56;7.32;;;1.90;;
54123;SDS011;55741;53.252;5.788;2022-09-13T05:43:24;8.23;;;2.13;;
54123;SDS011;55741;53.252;5.788;2022-09-13T05:46:01;8.32;;;1.73;;
54123;SDS011;55741;53.252;5.788;2022-09-13T05:48:31;9.20;;;1.73;;
54123;SDS011;55741;53.252;5.788;2022-09-13T05:51:04;8.77;;;2.08;;
54123;SDS011;55741;53.252;5.788;2022-09-13T05:53:35;7.70;;;1.80;;
54123;SDS011;55741;53.252;5.788;2022-09-13T05:56:04;9.48;;;2.03;;
54123;SDS011;55741;53.252;5.788;2022-09-13T05:58:31;10.57;;;1.77;;
54123;SDS011;55741;53.252;5.788;2022-09-13T06:00:58;11.52;;;1.55;;
54123;SDS011;55741;53.252;5.788;2022-09-13T06:03:24;5.53;;;1.50;;
54123;SDS011;55741;53.252;5.788;2022-09-13T06:05:53;9.68;;;1.60;;
54123;SDS011;55741;53.252;5.788;2022-09-13T06:08:20;8.10;;;1.65;;
54123;SDS011;55741;53.252;5.788;2022-09-13T06:10:53;4.57;;;1.50;;
54123;SDS011;55741;53.252;5.788;2022-09-13T06:13:20;6.80;;;1.75;;
54123;SDS011;55741;53.252;5.788;2022-09-13T06:15:46;7.10;;;1.33;;
54123;SDS011;55741;53.252;5.788;2022-09-13T06:18:12;4.95;;;1.23;;
54123;SDS011;55741;53.252;5.788;2022-09-13T06:20:37;6.97;;;1.45;;
54123;SDS011;55741;53.252;5.788;2022-09-13T06:23:03;7.13;;;2.08;;
54123;SDS011;55741;53.252;5.788;2022-09-13T06:25:29;7.72;;;1.33;;
54123;SDS011;55741;53.252;5.788;2022-09-13T06:27:55;4.45;;;1.27;;
54123;SDS011;55741;53.252;5.788;2022-09-13T06:30:21;4.60;;;1.27;;
54123;SDS011;55741;53.252;5.788;2022-09-13T06:32:48;5.47;;;1.30;;
54123;SDS011;55741;53.252;5.788;2022-09-13T06:35:14;6.95;;;1.27;;
54123;SDS011;55741;53.252;5.788;2022-09-13T06:37:40;5.00;;;1.80;;
54123;SDS011;55741;53.252;5.788;2022-09-13T06:40:06;6.53;;;1.50;;
54123;SDS011;55741;53.252;5.788;2022-09-13T06:42:33;12.90;;;1.63;;
54123;SDS011;55741;53.252;5.788;2022-09-13T06:44:59;5.00;;;1.20;;
54123;SDS011;55741;53.252;5.788;2022-09-13T06:47:25;5.53;;;1.60;;
54123;SDS011;55741;53.252;5.788;2022-09-13T06:49:51;7.70;;;1.60;;
54123;SDS011;55741;53.252;5.788;2022-09-13T06:52:17;5.20;;;1.45;;
54123;SDS011;55741;53.252;5.788;2022-09-13T06:54:43;5.78;;;1.45;;
54123;SDS011;55741;53.252;5.788;2022-09-13T06:57:09;7.70;;;1.80;;
54123;SDS011;55741;53.252;5.788;2022-09-13T06:59:34;6.53;;;1.60;;
54123;SDS011;55741;53.252;5.788;2022-09-13T07:02:00;4.30;;;1.50;;
54123;SDS011;55741;53.252;5.788;2022-09-13T07:04:26;7.53;;;1.75;;
54123;SDS011;55741;53.252;5.788;2022-09-13T07:06:56;6.45;;;1.58;;
54123;SDS011;55741;53.252;5.788;2022-09-13T07:09:23;8.82;;;1.52;;
54123;SDS011;55741;53.252;5.788;2022-09-13T07:11:50;6.40;;;1.60;;
54123;SDS011;55741;53.252;5.788;2022-09-13T07:14:19;6.20;;;1.90;;
54123;SDS011;55741;53.252;5.788;2022-09-13T07:16:49;6.22;;;1.42;;
54123;SDS011;55741;53.252;5.788;2022-09-13T07:19:16;6.43;;;1.33;;
54123;SDS011;55741;53.252;5.788;2022-09-13T07:21:44;8.60;;;1.63;;
54123;SDS011;55741;53.252;5.788;2022-09-13T07:24:10;6.97;;;1.67;;
54123;SDS011;55741;53.252;5.788;2022-09-13T07:26:37;7.05;;;1.70;;
54123;SDS011;55741;53.252;5.788;2022-09-13T07:29:06;5.93;;;1.40;;
54123;SDS011;55741;53.252;5.788;2022-09-13T07:31:35;6.03;;;1.63;;
54123;SDS011;55741;53.252;5.788;2022-09-13T07:34:11;11.52;;;2.40;;
54123;SDS011;55741;53.252;5.788;2022-09-13T07:36:41;7.55;;;1.50;;
54123;SDS011;55741;53.252;5.788;2022-09-13T07:39:09;7.65;;;1.50;;
54123;SDS011;55741;53.252;5.788;2022-09-13T07:41:35;8.40;;;1.95;;
54123;SDS011;55741;53.252;5.788;2022-09-13T07:44:01;7.20;;;1.30;;
54123;SDS011;55741;53.252;5.788;2022-09-13T07:46:29;6.40;;;1.98;;
54123;SDS011;55741;53.252;5.788;2022-09-13T07:48:56;7.90;;;1.65;;
54123;SDS011;55741;53.252;5.788;2022-09-13T07:51:24;12.23;;;1.80;;
54123;SDS011;55741;53.252;5.788;2022-09-13T07:53:54;6.03;;;1.50;;
54123;SDS011;55741;53.252;5.788;2022-09-13T07:56:22;6.18;;;1.70;;
54123;SDS011;55741;53.252;5.788;2022-09-13T07:58:53;8.75;;;1.70;;
54123;SDS011;55741;53.252;5.788;2022-09-13T08:03:53;8.52;;;2.35;;
54123;SDS011;55741;53.252;5.788;2022-09-13T08:06:24;10.23;;;1.65;;
54123;SDS011;55741;53.252;5.788;2022-09-13T08:08:51;8.77;;;1.90;;
54123;SDS011;55741;53.252;5.788;2022-09-13T08:11:21;9.00;;;2.13;;
54123;SDS011;55741;53.252;5.788;2022-09-13T08:13:52;9.40;;;1.88;;
54123;SDS011;55741;53.252;5.788;2022-09-13T08:16:19;8.40;;;1.60;;
54123;SDS011;55741;53.252;5.788;2022-09-13T08:18:46;11.85;;;1.77;;
54123;SDS011;55741;53.252;5.788;2022-09-13T08:21:14;6.97;;;1.77;;
54123;SDS011;55741;53.252;5.788;2022-09-13T08:23:40;8.32;;;2.28;;
54123;SDS011;55741;53.252;5.788;2022-09-13T08:26:06;7.15;;;1.65;;
54123;SDS011;55741;53.252;5.788;2022-09-13T08:28:34;6.53;;;2.05;;
54123;SDS011;55741;53.252;5.788;2022-09-13T08:31:05;6.93;;;1.75;;
54123;SDS011;55741;53.252;5.788;2022-09-13T08:33:36;5.55;;;1.60;;
54123;SDS011;55741;53.252;5.788;2022-09-13T08:36:04;6.72;;;1.50;;
54123;SDS011;55741;53.252;5.788;2022-09-13T08:38:30;9.95;;;1.60;;
54123;SDS011;55741;53.252;5.788;2022-09-13T08:41:01;7.47;;;1.77;;
54123;SDS011;55741;53.252;5.788;2022-09-13T08:49:04;8.80;;;1.80;;
54123;SDS011;55741;53.252;5.788;2022-09-13T08:51:38;9.00;;;1.88;;
54123;SDS011;55741;53.252;5.788;2022-09-13T08:54:10;6.93;;;1.80;;
54123;SDS011;55741;53.252;5.788;2022-09-13T08:56:39;7.35;;;2.15;;
54123;SDS011;55741;53.252;5.788;2022-09-13T09:01:51;8.80;;;2.42;;
54123;SDS011;55741;53.252;5.788;2022-09-13T09:06:54;11.52;;;2.13;;
54123;SDS011;55741;53.252;5.788;2022-09-13T09:09:28;6.25;;;1.75;;
54123;SDS011;55741;53.252;5.788;2022-09-13T09:12:00;6.13;;;1.92;;
54123;SDS011;55741;53.252;5.788;2022-09-13T09:14:40;10.15;;;1.83;;
54123;SDS011;55741;53.252;5.788;2022-09-13T09:17:12;10.00;;;1.50;;
54123;SDS011;55741;53.252;5.788;2022-09-13T09:20:07;9.60;;;1.63;;
54123;SDS011;55741;53.252;5.788;2022-09-13T09:22:35;6.30;;;1.65;;
54123;SDS011;55741;53.252;5.788;2022-09-13T09:25:02;7.63;;;1.50;;
54123;SDS011;55741;53.252;5.788;2022-09-13T09:27:29;9.23;;;1.65;;
54123;SDS011;55741;53.252;5.788;2022-09-13T09:29:55;9.98;;;1.98;;
54123;SDS011;55741;53.252;5.788;2022-09-13T09:35:28;7.82;;;1.50;;
54123;SDS011;55741;53.252;5.788;2022-09-13T09:40:48;9.52;;;2.15;;
54123;SDS011;55741;53.252;5.788;2022-09-13T09:43:16;6.28;;;1.70;;
54123;SDS011;55741;53.252;5.788;2022-09-13T09:45:49;6.10;;;1.67;;
54123;SDS011;55741;53.252;5.788;2022-09-13T09:48:20;6.60;;;1.95;;
54123;SDS011;55741;53.252;5.788;2022-09-13T09:50:52;10.00;;;1.77;;
54123;SDS011;55741;53.252;5.788;2022-09-13T09:53:32;6.55;;;1.50;;
54123;SDS011;55741;53.252;5.788;2022-09-13T09:56:05;6.18;;;1.40;;
54123;SDS011;55741;53.252;5.788;2022-09-13T09:58:41;7.05;;;2.13;;
54123;SDS011;55741;53.252;5.788;2022-09-13T10:01:25;7.03;;;1.65;;
54123;SDS011;55741;53.252;5.788;2022-09-13T10:06:32;7.15;;;1.85;;
54123;SDS011;55741;53.252;5.788;2022-09-13T10:09:01;11.25;;;2.40;;
54123;SDS011;55741;53.252;5.788;2022-09-13T10:11:41;8.63;;;1.60;;
54123;SDS011;55741;53.252;5.788;2022-09-13T10:14:35;7.80;;;1.60;;
54123;SDS011;55741;53.252;5.788;2022-09-13T10:19:59;7.10;;;1.65;;
54123;SDS011;55741;53.252;5.788;2022-09-13T10:22:29;5.30;;;1.48;;
54123;SDS011;55741;53.252;5.788;2022-09-13T10:25:29;8.07;;;1.65;;
54123;SDS011;55741;53.252;5.788;2022-09-13T10:27:53;10.77;;;1.63;;
54123;SDS011;55741;53.252;5.788;2022-09-13T10:35:54;8.68;;;2.05;;
54123;SDS011;55741;53.252;5.788;2022-09-13T10:41:07;8.43;;;1.65;;
54123;SDS011;55741;53.252;5.788;2022-09-13T10:43:35;10.55;;;1.90;;
54123;SDS011;55741;53.252;5.788;2022-09-13T10:46:05;7.88;;;2.55;;
54123;SDS011;55741;53.252;5.788;2022-09-13T10:48:43;8.52;;;2.60;;
54123;SDS011;55741;53.252;5.788;2022-09-13T10:56:47;11.07;;;2.20;;
54123;SDS011;55741;53.252;5.788;2022-09-13T10:59:27;10.35;;;1.80;;
54123;SDS011;55741;53.252;5.788;2022-09-13T11:07:35;8.52;;;2.25;;
54123;SDS011;55741;53.252;5.788;2022-09-13T11:12:56;10.18;;;2.10;;
54123;SDS011;55741;53.252;5.788;2022-09-13T11:15:54;9.77;;;1.90;;
54123;SDS011;55741;53.252;5.788;2022-09-13T11:18:41;7.70;;;2.10;;
54123;SDS011;55741;53.252;5.788;2022-09-13T11:29:55;10.05;;;2.25;;
54123;SDS011;55741;53.252;5.788;2022-09-13T11:35:27;14.93;;;3.10;;
54123;SDS011;55741;53.252;5.788;2022-09-13T11:52:32;5.55;;;1.85;;
54123;SDS011;55741;53.252;5.788;2022-09-13T11:57:57;6.82;;;2.00;;
54123;SDS011;55741;53.252;5.788;2022-09-13T12:03:36;6.70;;;1.80;;
54123;SDS011;55741;53.252;5.788;2022-09-13T12:08:50;6.95;;;2.03;;
54123;SDS011;55741;53.252;5.788;2022-09-13T12:11:30;11.13;;;2.00;;
54123;SDS011;55741;53.252;5.788;2022-09-13T12:14:00;8.10;;;2.20;;
54123;SDS011;55741;53.252;5.788;2022-09-13T12:19:04;12.00;;;1.80;;
54123;SDS011;55741;53.252;5.788;2022-09-13T12:21:38;9.93;;;2.30;;
54123;SDS011;55741;53.252;5.788;2022-09-13T12:26:58;10.35;;;1.88;;
54123;SDS011;55741;53.252;5.788;2022-09-13T12:29:39;14.13;;;2.45;;
54123;SDS011;55741;53.252;5.788;2022-09-13T12:32:10;12.73;;;2.28;;
54123;SDS011;55741;53.252;5.788;2022-09-13T12:34:49;7.65;;;2.33;;
54123;SDS011;55741;53.252;5.788;2022-09-13T12:43:29;8.25;;;2.05;;
54123;SDS011;55741;53.252;5.788;2022-09-13T12:56:47;6.70;;;1.67;;
54123;SDS011;55741;53.252;5.788;2022-09-13T13:04:54;9.20;;;1.90;;
54123;SDS011;55741;53.252;5.788;2022-09-13T13:07:27;10.40;;;1.95;;
54123;SDS011;55741;53.252;5.788;2022-09-13T13:09:55;8.73;;;2.13;;
54123;SDS011;55741;53.252;5.788;2022-09-13T13:14:50;9.02;;;2.10;;
54123;SDS011;55741;53.252;5.788;2022-09-13T13:17:34;6.82;;;1.90;;
54123;SDS011;55741;53.252;5.788;2022-09-13T13:20:46;7.90;;;1.85;;
54123;SDS011;55741;53.252;5.788;2022-09-13T13:23:04;6.18;;;1.83;;
54123;SDS011;55741;53.252;5.788;2022-09-13T13:31:31;6.93;;;2.10;;
54123;SDS011;55741;53.252;5.788;2022-09-13T13:39:06;7.95;;;1.95;;
54123;SDS011;55741;53.252;5.788;2022-09-13T13:41:52;6.88;;;1.65;;
54123;SDS011;55741;53.252;5.788;2022-09-13T13:46:52;6.25;;;2.05;;
54123;SDS011;55741;53.252;5.788;2022-09-13T13:54:56;8.70;;;1.77;;
54123;SDS011;55741;53.252;5.788;2022-09-13T14:00:04;6.70;;;2.10;;
54123;SDS011;55741;53.252;5.788;2022-09-13T14:02:35;7.35;;;1.63;;
54123;SDS011;55741;53.252;5.788;2022-09-13T14:14:13;7.50;;;1.75;;
54123;SDS011;55741;53.252;5.788;2022-09-13T14:17:08;10.60;;;2.00;;
54123;SDS011;55741;53.252;5.788;2022-09-13T14:19:59;7.15;;;1.63;;
54123;SDS011;55741;53.252;5.788;2022-09-13T14:22:33;8.32;;;1.70;;
54123;SDS011;55741;53.252;5.788;2022-09-13T14:25:14;8.77;;;1.83;;
54123;SDS011;55741;53.252;5.788;2022-09-13T14:27:48;8.38;;;1.90;;
54123;SDS011;55741;53.252;5.788;2022-09-13T14:32:45;7.88;;;1.75;;
54123;SDS011;55741;53.252;5.788;2022-09-13T14:37:55;7.50;;;1.98;;
54123;SDS011;55741;53.252;5.788;2022-09-13T14:40:33;9.07;;;1.90;;
54123;SDS011;55741;53.252;5.788;2022-09-13T14:42:59;10.95;;;1.45;;
54123;SDS011;55741;53.252;5.788;2022-09-13T14:45:39;7.18;;;1.77;;
54123;SDS011;55741;53.252;5.788;2022-09-13T14:53:19;8.98;;;1.65;;
54123;SDS011;55741;53.252;5.788;2022-09-13T14:55:50;5.60;;;1.45;;
54123;SDS011;55741;53.252;5.788;2022-09-13T14:58:21;4.85;;;1.60;;
54123;SDS011;55741;53.252;5.788;2022-09-13T15:01:01;8.57;;;1.95;;
54123;SDS011;55741;53.252;5.788;2022-09-13T15:03:30;6.43;;;1.60;;
54123;SDS011;55741;53.252;5.788;2022-09-13T15:05:57;6.90;;;1.95;;
54123;SDS011;55741;53.252;5.788;2022-09-13T15:10:57;11.13;;;2.78;;
54123;SDS011;55741;53.252;5.788;2022-09-13T15:13:24;26.33;;;13.30;;
54123;SDS011;55741;53.252;5.788;2022-09-13T15:15:50;10.95;;;3.60;;
54123;SDS011;55741;53.252;5.788;2022-09-13T15:21:13;7.53;;;1.70;;
54123;SDS011;55741;53.252;5.788;2022-09-13T15:23:41;6.07;;;1.60;;
54123;SDS011;55741;53.252;5.788;2022-09-13T15:26:20;8.18;;;1.52;;
54123;SDS011;55741;53.252;5.788;2022-09-13T15:28:49;7.63;;;2.03;;
54123;SDS011;55741;53.252;5.788;2022-09-13T15:31:19;7.40;;;1.60;;
54123;SDS011;55741;53.252;5.788;2022-09-13T15:34:10;9.80;;;1.67;;
54123;SDS011;55741;53.252;5.788;2022-09-13T15:36:42;7.32;;;1.95;;
54123;SDS011;55741;53.252;5.788;2022-09-13T15:39:13;11.60;;;1.60;;
54123;SDS011;55741;53.252;5.788;2022-09-13T15:44:25;7.90;;;1.50;;
54123;SDS011;55741;53.252;5.788;2022-09-13T15:46:56;10.38;;;1.95;;
54123;SDS011;55741;53.252;5.788;2022-09-13T15:49:26;8.23;;;1.80;;
54123;SDS011;55741;53.252;5.788;2022-09-13T15:51:54;5.60;;;1.90;;
54123;SDS011;55741;53.252;5.788;2022-09-13T15:54:21;9.13;;;1.77;;
54123;SDS011;55741;53.252;5.788;2022-09-13T15:56:55;9.70;;;2.55;;
54123;SDS011;55741;53.252;5.788;2022-09-13T15:59:23;8.55;;;1.88;;
54123;SDS011;55741;53.252;5.788;2022-09-13T16:01:51;7.60;;;1.70;;
54123;SDS011;55741;53.252;5.788;2022-09-13T16:04:17;4.90;;;1.70;;
54123;SDS011;55741;53.252;5.788;2022-09-13T16:06:43;7.90;;;2.08;;
54123;SDS011;55741;53.252;5.788;2022-09-13T16:09:10;4.78;;;1.70;;
54123;SDS011;55741;53.252;5.788;2022-09-13T16:11:44;5.07;;;1.50;;
54123;SDS011;55741;53.252;5.788;2022-09-13T16:14:10;7.38;;;1.92;;
54123;SDS011;55741;53.252;5.788;2022-09-13T16:16:36;8.30;;;1.50;;
54123;SDS011;55741;53.252;5.788;2022-09-13T16:19:03;7.70;;;1.60;;
54123;SDS011;55741;53.252;5.788;2022-09-13T16:21:28;6.97;;;1.52;;
54123;SDS011;55741;53.252;5.788;2022-09-13T16:23:54;6.25;;;1.50;;
54123;SDS011;55741;53.252;5.788;2022-09-13T16:26:20;7.05;;;1.70;;
54123;SDS011;55741;53.252;5.788;2022-09-13T16:28:46;5.95;;;1.50;;
54123;SDS011;55741;53.252;5.788;2022-09-13T16:31:12;5.55;;;1.25;;
54123;SDS011;55741;53.252;5.788;2022-09-13T16:33:40;7.28;;;1.75;;
54123;SDS011;55741;53.252;5.788;2022-09-13T16:36:09;4.20;;;1.38;;
54123;SDS011;55741;53.252;5.788;2022-09-13T16:38:37;8.55;;;2.25;;
54123;SDS011;55741;53.252;5.788;2022-09-13T16:41:03;7.18;;;1.65;;
54123;SDS011;55741;53.252;5.788;2022-09-13T16:43:30;11.15;;;1.45;;
54123;SDS011;55741;53.252;5.788;2022-09-13T16:45:57;7.38;;;1.63;;
54123;SDS011;55741;53.252;5.788;2022-09-13T16:48:25;6.95;;;1.92;;
54123;SDS011;55741;53.252;5.788;2022-09-13T16:50:51;3.45;;;1.27;;
54123;SDS011;55741;53.252;5.788;2022-09-13T16:53:17;9.45;;;1.27;;
54123;SDS011;55741;53.252;5.788;2022-09-13T16:55:43;7.13;;;1.20;;
54123;SDS011;55741;53.252;5.788;2022-09-13T16:58:10;8.77;;;1.65;;
54123;SDS011;55741;53.252;5.788;2022-09-13T17:00:35;6.03;;;1.45;;
54123;SDS011;55741;53.252;5.788;2022-09-13T17:03:02;3.83;;;1.17;;
54123;SDS011;55741;53.252;5.788;2022-09-13T17:05:27;3.83;;;1.70;;
54123;SDS011;55741;53.252;5.788;2022-09-13T17:07:53;5.90;;;1.10;;
54123;SDS011;55741;53.252;5.788;2022-09-13T17:10:19;4.90;;;1.30;;
54123;SDS011;55741;53.252;5.788;2022-09-13T17:12:45;7.45;;;1.40;;
54123;SDS011;55741;53.252;5.788;2022-09-13T17:15:11;7.88;;;1.30;;
54123;SDS011;55741;53.252;5.788;2022-09-13T17:17:37;4.00;;;1.17;;
54123;SDS011;55741;53.252;5.788;2022-09-13T17:20:07;7.78;;;1.40;;
54123;SDS011;55741;53.252;5.788;2022-09-13T17:22:36;5.95;;;1.30;;
54123;SDS011;55741;53.252;5.788;2022-09-13T17:25:02;4.15;;;1.27;;
54123;SDS011;55741;53.252;5.788;2022-09-13T17:27:29;7.82;;;1.33;;
54123;SDS011;55741;53.252;5.788;2022-09-13T17:29:54;9.88;;;1.42;;
54123;SDS011;55741;53.252;5.788;2022-09-13T17:32:20;5.72;;;1.58;;
54123;SDS011;55741;53.252;5.788;2022-09-13T17:34:46;8.25;;;1.33;;
54123;SDS011;55741;53.252;5.788;2022-09-13T17:37:12;6.40;;;1.52;;
54123;SDS011;55741;53.252;5.788;2022-09-13T17:39:38;4.45;;;1.17;;
54123;SDS011;55741;53.252;5.788;2022-09-13T17:42:04;4.85;;;1.30;;
54123;SDS011;55741;53.252;5.788;2022-09-13T17:44:30;4.97;;;1.65;;
54123;SDS011;55741;53.252;5.788;2022-09-13T17:46:56;7.38;;;1.27;;
54123;SDS011;55741;53.252;5.788;2022-09-13T17:49:23;5.13;;;1.55;;
54123;SDS011;55741;53.252;5.788;2022-09-13T17:51:49;7.65;;;1.42;;
54123;SDS011;55741;53.252;5.788;2022-09-13T17:54:15;5.55;;;1.58;;
54123;SDS011;55741;53.252;5.788;2022-09-13T17:56:41;6.55;;;1.70;;
54123;SDS011;55741;53.252;5.788;2022-09-13T17:59:10;6.72;;;1.25;;
54123;SDS011;55741;53.252;5.788;2022-09-13T18:01:43;8.63;;;1.98;;
54123;SDS011;55741;53.252;5.788;2022-09-13T18:04:11;6.85;;;1.85;;
54123;SDS011;55741;53.252;5.788;2022-09-13T18:06:38;11.05;;;2.00;;
54123;SDS011;55741;53.252;5.788;2022-09-13T18:09:10;4.05;;;1.40;;
54123;SDS011;55741;53.252;5.788;2022-09-13T18:11:38;5.82;;;1.75;;
54123;SDS011;55741;53.252;5.788;2022-09-13T18:14:04;6.30;;;1.50;;
54123;SDS011;55741;53.252;5.788;2022-09-13T18:16:30;7.03;;;1.77;;
54123;SDS011;55741;53.252;5.788;2022-09-13T18:18:57;4.18;;;1.80;;
54123;SDS011;55741;53.252;5.788;2022-09-13T18:21:25;5.07;;;1.85;;
54123;SDS011;55741;53.252;5.788;2022-09-13T18:23:52;5.50;;;1.52;;
54123;SDS011;55741;53.252;5.788;2022-09-13T18:26:20;3.80;;;1.25;;
54123;SDS011;55741;53.252;5.788;2022-09-13T18:28:53;7.53;;;1.45;;
54123;SDS011;55741;53.252;5.788;2022-09-13T18:31:26;5.97;;;1.50;;
54123;SDS011;55741;53.252;5.788;2022-09-13T18:33:54;4.28;;;1.40;;
54123;SDS011;55741;53.252;5.788;2022-09-13T18:36:21;7.60;;;1.70;;
54123;SDS011;55741;53.252;5.788;2022-09-13T18:38:48;5.57;;;1.70;;